Time;durP1;ratioP1;P1;durP2;ratioP2;P2;SDS_P1;SDS_P2;PMS_P1;PMS_P2;Temp;Humidity;BMP_temperature;BMP_pressure;BME280_temperature;BME280_humidity;BME280_pressure;Samples;Min_cycle;Max_cycle;Signal;HPM_P1;HPM_P2
2022/01/18 00:01:55;;;;;;;62.42;6.57;;;2.90;89.50;;;;;;5049899;28;20047;-74
2022/01/18 00:04:29;;;;;;;52.42;6.28;;;2.90;89.40;;;;;;5040715;28;20124;-74
2022/01/18 00:07:14;;;;;;;54.97;6.57;;;2.80;89.40;;;;;;5056762;28;20098;-74
2022/01/18 00:09:50;;;;;;;61.77;5.77;;;2.70;89.40;;;;;;5065074;28;20562;-74
2022/01/18 00:23:24;;;;;;;63.72;6.63;;;2.70;89.50;;;;;;5054013;28;20066;-74
2022/01/18 00:25:54;;;;;;;70.60;7.60;;;2.70;89.40;;;;;;5031512;28;20323;-74
2022/01/18 00:28:26;;;;;;;51.55;5.47;;;2.70;89.40;;;;;;5040083;28;20464;-73
2022/01/18 00:36:37;;;;;;;58.22;6.18;;;2.80;89.50;;;;;;5070291;28;20097;-74
2022/01/18 00:39:18;;;;;;;64.20;7.78;;;2.80;89.50;;;;;;5046628;28;20047;-74
2022/01/18 00:41:52;;;;;;;65.10;6.43;;;2.80;89.60;;;;;;5051532;28;20083;-74
2022/01/18 00:44:22;;;;;;;66.13;7.50;;;2.80;89.60;;;;;;5052103;28;20115;-74
2022/01/18 00:46:55;;;;;;;51.50;6.32;;;2.80;89.60;;;;;;5031405;28;20036;-74
2022/01/18 00:49:23;;;;;;;72.13;7.07;;;2.80;89.70;;;;;;5040971;28;20057;-74
2022/01/18 00:51:57;;;;;;;52.78;6.35;;;2.90;89.60;;;;;;5042391;28;20051;-74
2022/01/18 00:54:48;;;;;;;57.65;6.30;;;2.90;89.70;;;;;;5042997;28;20124;-74
2022/01/18 00:57:39;;;;;;;69.07;6.10;;;2.90;89.70;;;;;;5064045;28;20037;-74
2022/01/18 01:00:16;;;;;;;64.88;5.60;;;2.90;89.80;;;;;;5080873;28;20049;-74
2022/01/18 01:03:10;;;;;;;68.20;7.35;;;2.90;89.70;;;;;;5054440;28;20098;-74
2022/01/18 01:05:43;;;;;;;50.85;6.63;;;2.90;89.70;;;;;;5046451;28;20056;-74
2022/01/18 01:08:10;;;;;;;65.30;6.32;;;2.80;89.70;;;;;;5044269;28;20043;-74
2022/01/18 01:10:42;;;;;;;62.25;6.40;;;2.80;89.70;;;;;;5047236;28;20060;-75
2022/01/18 01:13:27;;;;;;;56.22;5.03;;;2.70;89.70;;;;;;5042188;28;20575;-74
2022/01/18 01:46:27;;;;;;;64.05;4.47;;;2.10;89.50;;;;;;5057203;28;20112;-74
2022/01/18 01:48:55;;;;;;;61.80;4.57;;;2.10;89.50;;;;;;5058298;28;20139;-74
2022/01/18 01:51:29;;;;;;;46.97;3.92;;;2.10;89.50;;;;;;5048604;28;20067;-74
2022/01/18 01:54:08;;;;;;;57.10;3.90;;;2.10;89.50;;;;;;5068658;28;20074;-74
2022/01/18 01:56:39;;;;;;;32.63;2.90;;;2.10;89.50;;;;;;5065210;28;20127;-74
2022/01/18 01:59:29;;;;;;;43.60;3.88;;;2.10;89.60;;;;;;5060271;28;20067;-74
2022/01/18 02:02:23;;;;;;;187.13;12.07;;;2.10;89.60;;;;;;5057778;28;20128;-74
2022/01/18 02:05:00;;;;;;;73.50;4.93;;;2.10;89.50;;;;;;5067067;28;20068;-74
2022/01/18 02:07:30;;;;;;;163.23;9.07;;;2.00;89.60;;;;;;5040302;28;20064;-74
2022/01/18 02:10:03;;;;;;;99.47;6.28;;;2.00;89.60;;;;;;5025509;28;20052;-74
2022/01/18 02:12:29;;;;;;;83.40;5.53;;;1.90;89.50;;;;;;5035673;28;20040;-74
2022/01/18 02:15:17;;;;;;;67.75;3.92;;;1.90;89.60;;;;;;5059143;28;20070;-74
2022/01/18 02:23:29;;;;;;;118.72;7.32;;;1.80;89.50;;;;;;5058727;28;20037;-74
2022/01/18 02:25:57;;;;;;;95.88;5.55;;;1.80;89.50;;;;;;5047147;28;20124;-74
2022/01/18 02:28:32;;;;;;;94.63;5.65;;;1.90;89.60;;;;;;5068113;28;20037;-75
2022/01/18 02:31:08;;;;;;;61.40;4.70;;;1.90;89.50;;;;;;5061094;28;20044;-74
2022/01/18 02:33:39;;;;;;;32.95;4.00;;;2.00;89.60;;;;;;5043113;28;20063;-74
2022/01/18 02:36:09;;;;;;;35.95;3.97;;;2.10;89.80;;;;;;5056225;28;20124;-74
2022/01/18 02:38:36;;;;;;;41.22;3.85;;;2.10;89.60;;;;;;5036070;28;20033;-74
2022/01/18 02:41:06;;;;;;;34.33;3.75;;;2.10;89.70;;;;;;5047362;28;20122;-74
2022/01/18 02:43:55;;;;;;;17.58;3.10;;;2.10;89.70;;;;;;5074852;28;20067;-73
2022/01/18 02:46:22;;;;;;;34.25;4.55;;;2.10;89.80;;;;;;5055648;28;20375;-74
2022/01/18 02:48:50;;;;;;;198.95;13.98;;;2.20;89.80;;;;;;5069740;28;20044;-75
2022/01/18 02:51:28;;;;;;;34.25;3.50;;;2.20;89.70;;;;;;5042869;28;20048;-74
2022/01/18 02:54:07;;;;;;;48.60;4.78;;;2.20;89.70;;;;;;5050941;28;20060;-74
2022/01/18 02:57:01;;;;;;;30.50;3.55;;;2.20;89.70;;;;;;5067652;28;20131;-74
2022/01/18 02:59:52;;;;;;;69.20;6.32;;;2.30;89.80;;;;;;5044000;28;20051;-74
2022/01/18 03:05:14;;;;;;;42.35;4.35;;;2.30;89.80;;;;;;5048319;28;20044;-74
2022/01/18 03:07:52;;;;;;;18.10;3.22;;;2.40;89.90;;;;;;5059045;28;20051;-73
2022/01/18 03:10:25;;;;;;;47.47;5.22;;;2.40;89.90;;;;;;5061144;28;20048;-75
2022/01/18 03:12:53;;;;;;;37.97;5.35;;;2.40;89.90;;;;;;5024870;28;20045;-74
2022/01/18 03:15:35;;;;;;;23.63;4.38;;;2.50;89.80;;;;;;5059799;28;20041;-74
2022/01/18 03:18:08;;;;;;;38.13;5.50;;;2.60;89.90;;;;;;5058448;28;20104;-74
2022/01/18 03:20:42;;;;;;;35.67;5.20;;;2.70;90.00;;;;;;5049184;28;20041;-74
2022/01/18 03:23:36;;;;;;;27.30;4.80;;;2.90;89.90;;;;;;5037889;28;20040;-74
2022/01/18 03:26:14;;;;;;;32.35;5.45;;;3.00;90.00;;;;;;5067171;28;20056;-74
2022/01/18 03:28:56;;;;;;;27.45;3.80;;;3.00;89.90;;;;;;5026505;28;20045;-74
2022/01/18 03:31:50;;;;;;;34.55;5.28;;;3.10;90.00;;;;;;5064623;28;20076;-74
2022/01/18 03:34:28;;;;;;;26.70;4.30;;;3.10;90.00;;;;;;5041894;28;20056;-74
2022/01/18 03:36:54;;;;;;;37.85;4.55;;;3.20;90.10;;;;;;5049712;28;20326;-74
2022/01/18 03:39:28;;;;;;;37.65;4.70;;;3.20;90.00;;;;;;5048058;28;20036;-74
2022/01/18 03:42:36;;;;;;;29.83;5.00;;;3.20;90.10;;;;;;5070144;28;20041;-74
2022/01/18 03:45:06;;;;;;;32.03;4.82;;;3.20;90.10;;;;;;5067142;28;20071;-74
2022/01/18 03:47:38;;;;;;;29.70;4.47;;;3.20;90.10;;;;;;5038659;28;20102;-74
2022/01/18 03:50:12;;;;;;;37.88;4.57;;;3.20;90.10;;;;;;5019368;28;20120;-74
2022/01/18 03:52:54;;;;;;;33.33;4.63;;;3.20;90.00;;;;;;5046921;28;20072;-74
2022/01/18 03:55:26;;;;;;;30.83;4.70;;;3.30;90.10;;;;;;5056534;28;20047;-74
2022/01/18 03:57:52;;;;;;;31.50;4.53;;;3.30;90.20;;;;;;5007457;28;20040;-74
2022/01/18 04:00:33;;;;;;;29.92;4.88;;;3.40;90.20;;;;;;5023204;28;20043;-74
2022/01/18 04:03:07;;;;;;;28.10;4.50;;;3.40;90.10;;;;;;5050378;28;20135;-74
2022/01/18 04:05:46;;;;;;;21.88;4.53;;;3.50;90.10;;;;;;5045736;28;20053;-74
2022/01/18 04:08:12;;;;;;;26.92;4.07;;;3.50;90.10;;;;;;5031276;28;20057;-74
2022/01/18 04:10:38;;;;;;;31.98;4.90;;;3.60;90.20;;;;;;5019022;28;20049;-74
2022/01/18 04:13:05;;;;;;;34.38;5.43;;;3.60;90.30;;;;;;5018373;28;20128;-74
2022/01/18 04:15:37;;;;;;;27.85;4.30;;;3.60;90.20;;;;;;5016590;28;20139;-75
2022/01/18 04:26:56;;;;;;;32.58;4.82;;;3.80;90.30;;;;;;5049345;28;20073;-74
2022/01/18 04:28:57;;;;;;;32.10;5.22;;;3.80;90.20;;;;;;5017074;28;20053;-74
2022/01/18 04:31:24;;;;;;;43.20;5.72;;;3.80;90.30;;;;;;5034977;28;20041;-74
2022/01/18 04:33:59;;;;;;;35.38;5.25;;;3.90;90.30;;;;;;5018766;28;20045;-74
2022/01/18 04:36:41;;;;;;;32.00;4.80;;;3.90;90.20;;;;;;5052804;28;20110;-74
2022/01/18 04:39:07;;;;;;;26.80;3.83;;;3.90;90.20;;;;;;5003411;28;20037;-74
2022/01/18 04:41:39;;;;;;;31.05;5.40;;;4.00;90.20;;;;;;5040281;28;20489;-74
2022/01/18 04:49:41;;;;;;;31.90;3.90;;;4.10;90.40;;;;;;5041497;28;20041;-74
2022/01/18 04:52:10;;;;;;;31.03;4.20;;;4.10;90.30;;;;;;5030729;28;20036;-75
2022/01/18 04:54:41;;;;;;;30.17;4.63;;;4.20;90.30;;;;;;5009650;28;20042;-74
2022/01/18 04:59:47;;;;;;;29.13;5.75;;;4.20;90.40;;;;;;5042830;28;20048;-74
2022/01/18 05:02:13;;;;;;;31.17;4.80;;;4.20;90.40;;;;;;5019776;28;20060;-74
2022/01/18 05:04:52;;;;;;;31.35;5.18;;;4.20;90.30;;;;;;5045147;28;20060;-74
2022/01/18 05:07:28;;;;;;;37.75;6.15;;;4.30;90.30;;;;;;5044431;28;20513;-74
2022/01/18 05:10:04;;;;;;;27.10;4.60;;;4.30;90.40;;;;;;5018068;28;20080;-74
2022/01/18 05:12:43;;;;;;;32.30;5.43;;;4.30;90.30;;;;;;5050951;28;20048;-74
2022/01/18 05:15:33;;;;;;;33.28;5.05;;;4.30;90.40;;;;;;5045560;28;20037;-74
2022/01/18 05:23:39;;;;;;;27.67;5.07;;;4.30;90.40;;;;;;5033871;28;20065;-74
2022/01/18 05:26:07;;;;;;;29.02;4.65;;;4.30;90.30;;;;;;5066249;28;20116;-74
2022/01/18 05:28:38;;;;;;;43.75;4.80;;;4.30;90.50;;;;;;5047288;28;20053;-74
2022/01/18 05:31:06;;;;;;;25.60;4.65;;;4.20;90.40;;;;;;5016366;28;20485;-74
2022/01/18 05:33:51;;;;;;;35.55;5.50;;;4.20;90.40;;;;;;5046856;28;20079;-74
2022/01/18 05:36:17;;;;;;;26.02;4.55;;;4.20;90.40;;;;;;5045250;28;20044;-74
2022/01/18 05:38:46;;;;;;;28.80;4.57;;;4.20;90.40;;;;;;5035872;28;20456;-74
2022/01/18 05:41:18;;;;;;;34.38;4.65;;;4.20;90.40;;;;;;5035334;28;20049;-74
2022/01/18 05:43:50;;;;;;;27.38;3.83;;;4.20;90.40;;;;;;5017761;28;20049;-74
2022/01/18 05:46:24;;;;;;;36.95;4.22;;;4.20;90.30;;;;;;5045357;28;20176;-74
2022/01/18 05:48:50;;;;;;;37.83;5.18;;;4.20;90.40;;;;;;5006250;28;20071;-74
2022/01/18 05:51:17;;;;;;;40.83;4.45;;;4.30;90.40;;;;;;5046428;28;20084;-74
2022/01/18 05:53:42;;;;;;;33.10;4.60;;;4.30;90.50;;;;;;5029079;28;20490;-74
2022/01/18 05:56:17;;;;;;;29.65;4.15;;;4.30;90.50;;;;;;5030770;28;20049;-74
2022/01/18 05:58:44;;;;;;;29.02;4.53;;;4.40;90.40;;;;;;5038500;28;20074;-74
2022/01/18 06:01:13;;;;;;;33.20;4.43;;;4.40;90.50;;;;;;5040386;28;20079;-74
2022/01/18 06:09:09;;;;;;;22.40;3.75;;;4.40;90.50;;;;;;5066939;28;20047;-74
2022/01/18 06:11:40;;;;;;;31.58;5.00;;;4.30;90.50;;;;;;5069718;28;20067;-74
2022/01/18 06:14:06;;;;;;;29.48;4.55;;;4.30;90.40;;;;;;5047597;28;20072;-74
2022/01/18 06:16:32;;;;;;;30.17;4.67;;;4.30;90.50;;;;;;5068956;28;20080;-74
2022/01/18 06:18:58;;;;;;;27.43;4.60;;;4.30;90.50;;;;;;5050855;28;20048;-74
2022/01/18 06:21:25;;;;;;;31.25;5.30;;;4.30;90.40;;;;;;5034025;28;20045;-74
2022/01/18 06:23:54;;;;;;;28.90;5.20;;;4.30;90.50;;;;;;5048817;28;20037;-74
2022/01/18 06:26:19;;;;;;;29.03;4.97;;;4.40;90.60;;;;;;5021781;28;20060;-74
2022/01/18 06:28:46;;;;;;;29.93;4.40;;;4.40;90.50;;;;;;5025840;28;20040;-74
2022/01/18 06:31:17;;;;;;;29.23;4.30;;;4.40;90.50;;;;;;5040906;28;20056;-74
2022/01/18 06:33:43;;;;;;;27.90;4.28;;;4.40;90.50;;;;;;5051467;28;20370;-74
2022/01/18 06:36:11;;;;;;;27.42;4.10;;;4.50;90.50;;;;;;5052345;28;20089;-74
2022/01/18 06:38:37;;;;;;;25.83;4.15;;;4.50;90.60;;;;;;5039169;28;20049;-74
2022/01/18 06:41:04;;;;;;;22.03;3.77;;;4.50;90.50;;;;;;5030635;28;20043;-74
2022/01/18 06:43:30;;;;;;;24.55;4.00;;;4.60;90.60;;;;;;5055642;28;20068;-74
2022/01/18 06:45:59;;;;;;;32.70;5.40;;;4.60;90.60;;;;;;5070379;28;20409;-74
2022/01/18 06:48:25;;;;;;;25.17;3.90;;;4.60;90.50;;;;;;5027186;28;20136;-74
2022/01/18 06:50:51;;;;;;;25.50;3.80;;;4.60;90.50;;;;;;5036991;28;20072;-74
2022/01/18 06:53:22;;;;;;;21.50;3.58;;;4.60;90.60;;;;;;5020027;28;20769;-74
2022/01/18 06:55:52;;;;;;;19.30;2.73;;;4.70;90.60;;;;;;5045991;28;20040;-74
2022/01/18 06:58:19;;;;;;;18.40;3.38;;;4.80;90.60;;;;;;5055543;28;20037;-74
2022/01/18 07:00:46;;;;;;;26.00;3.65;;;4.80;90.50;;;;;;5040471;28;20137;-75
2022/01/18 07:03:12;;;;;;;21.45;4.20;;;4.80;90.60;;;;;;5063110;28;20070;-75
2022/01/18 07:05:39;;;;;;;23.87;4.97;;;4.80;90.60;;;;;;5051297;28;20085;-74
2022/01/18 07:08:05;;;;;;;25.40;4.65;;;4.80;90.60;;;;;;5021486;28;20044;-74
2022/01/18 07:10:31;;;;;;;28.80;5.57;;;4.80;90.60;;;;;;5059199;28;20087;-74
2022/01/18 07:13:00;;;;;;;25.48;5.40;;;4.80;90.60;;;;;;5072206;28;20048;-74
2022/01/18 07:15:26;;;;;;;30.95;6.13;;;4.80;90.60;;;;;;5035548;28;20032;-74
2022/01/18 07:17:53;;;;;;;21.77;5.50;;;4.80;90.60;;;;;;5041713;28;20074;-74
2022/01/18 07:20:19;;;;;;;35.28;6.97;;;4.80;90.60;;;;;;5041582;28;20036;-74
2022/01/18 07:22:45;;;;;;;26.73;5.90;;;4.70;90.50;;;;;;5022218;28;20039;-74
2022/01/18 07:25:15;;;;;;;31.65;6.05;;;4.70;90.60;;;;;;5048713;28;20080;-74
2022/01/18 07:27:41;;;;;;;35.28;5.53;;;4.70;90.50;;;;;;5043117;28;20044;-74
2022/01/18 07:30:08;;;;;;;25.60;6.27;;;4.70;90.60;;;;;;5026356;28;20040;-74
2022/01/18 07:32:33;;;;;;;28.67;6.28;;;4.60;90.60;;;;;;5025473;28;20140;-74
2022/01/18 07:34:59;;;;;;;28.30;6.70;;;4.60;90.50;;;;;;5043391;28;20046;-74
2022/01/18 07:37:25;;;;;;;30.73;7.70;;;4.60;90.60;;;;;;5039342;28;20052;-74
2022/01/18 07:39:52;;;;;;;31.03;7.40;;;4.60;90.50;;;;;;5020543;28;20044;-74
2022/01/18 07:42:20;;;;;;;29.88;7.55;;;4.60;90.60;;;;;;5039487;28;20036;-74
2022/01/18 07:44:47;;;;;;;35.83;8.35;;;4.60;90.60;;;;;;5034316;28;20414;-74
2022/01/18 07:47:13;;;;;;;24.63;6.35;;;4.60;90.40;;;;;;5038401;28;20044;-74
2022/01/18 07:49:39;;;;;;;29.47;6.43;;;4.60;90.50;;;;;;5026114;28;20047;-74
2022/01/18 07:52:05;;;;;;;30.30;7.83;;;4.60;90.50;;;;;;5041332;28;20077;-74
2022/01/18 07:54:31;;;;;;;28.20;7.10;;;4.70;90.50;;;;;;5057464;28;20055;-74
2022/01/18 07:56:58;;;;;;;30.08;7.50;;;4.60;90.40;;;;;;5055189;28;20039;-74
2022/01/18 07:59:29;;;;;;;21.10;5.82;;;4.70;90.50;;;;;;5053156;28;20553;-73
2022/01/18 08:01:55;;;;;;;37.63;7.40;;;4.60;90.50;;;;;;5042192;28;20048;-74
2022/01/18 08:04:21;;;;;;;33.73;6.90;;;4.70;90.50;;;;;;5044524;28;20048;-74
2022/01/18 08:06:47;;;;;;;24.92;5.90;;;4.70;90.60;;;;;;5046948;28;20285;-74
2022/01/18 08:09:18;;;;;;;24.40;4.23;;;4.70;90.50;;;;;;5060927;28;20061;-74
2022/01/18 08:11:44;;;;;;;14.52;3.75;;;4.70;90.60;;;;;;5029295;28;20032;-74
2022/01/18 08:14:17;;;;;;;18.77;4.88;;;4.70;90.40;;;;;;5043790;28;20066;-74
2022/01/18 08:19:13;;;;;;;22.25;4.97;;;4.80;90.50;;;;;;5035946;28;20055;-74
2022/01/18 08:21:39;;;;;;;26.35;5.85;;;4.80;90.60;;;;;;5061613;28;20443;-74
2022/01/18 08:24:05;;;;;;;29.63;6.80;;;4.80;90.60;;;;;;5039363;28;20039;-74
2022/01/18 08:26:30;;;;;;;39.70;8.33;;;4.80;90.60;;;;;;5034297;28;20051;-74
2022/01/18 08:28:57;;;;;;;24.77;5.47;;;4.80;90.60;;;;;;5030164;28;20127;-74
2022/01/18 08:31:23;;;;;;;28.90;6.20;;;4.80;90.60;;;;;;5041008;28;20044;-74
2022/01/18 08:33:49;;;;;;;33.57;6.67;;;4.90;90.60;;;;;;5044198;28;20390;-74
2022/01/18 08:36:15;;;;;;;19.30;5.90;;;4.90;90.60;;;;;;5041559;28;20462;-74
2022/01/18 08:38:41;;;;;;;22.37;5.80;;;4.90;90.50;;;;;;5055243;28;20040;-74
2022/01/18 08:41:13;;;;;;;21.42;5.22;;;4.90;90.60;;;;;;5061383;28;20164;-74
2022/01/18 08:43:38;;;;;;;18.97;4.07;;;4.90;90.60;;;;;;5041687;28;20566;-75
2022/01/18 08:46:04;;;;;;;11.50;3.03;;;4.90;90.50;;;;;;5016500;28;20093;-74
2022/01/18 08:48:31;;;;;;;15.00;3.65;;;4.90;90.50;;;;;;5041707;28;20108;-74
2022/01/18 08:50:56;;;;;;;12.75;3.13;;;4.90;90.60;;;;;;5062871;28;20103;-74
2022/01/18 08:53:22;;;;;;;13.00;3.40;;;4.90;90.50;;;;;;5039468;28;20190;-74
2022/01/18 08:55:48;;;;;;;10.77;3.03;;;4.90;90.50;;;;;;5066985;28;20032;-74
2022/01/18 08:58:14;;;;;;;12.57;2.63;;;5.00;90.50;;;;;;5028155;28;20287;-74
2022/01/18 09:00:40;;;;;;;10.47;2.47;;;5.00;90.50;;;;;;5048414;28;20447;-75
2022/01/18 09:03:06;;;;;;;12.25;3.20;;;5.00;90.50;;;;;;5054509;28;20040;-74
2022/01/18 09:05:32;;;;;;;17.85;3.85;;;5.00;90.50;;;;;;5022927;28;20467;-74
2022/01/18 09:08:04;;;;;;;17.50;3.88;;;5.00;90.40;;;;;;5043772;28;20083;-74
2022/01/18 09:10:30;;;;;;;11.52;3.92;;;5.00;90.40;;;;;;5055436;28;20044;-74
2022/01/18 09:12:56;;;;;;;11.97;3.83;;;5.00;90.40;;;;;;5040400;28;20479;-74
2022/01/18 09:15:24;;;;;;;18.40;4.53;;;5.00;90.40;;;;;;5026912;28;20044;-75
2022/01/18 09:17:50;;;;;;;10.55;3.42;;;5.00;90.50;;;;;;5068095;28;20056;-74
2022/01/18 09:20:15;;;;;;;18.77;4.60;;;5.00;90.40;;;;;;5045273;28;20064;-74
2022/01/18 09:22:52;;;;;;;16.90;4.33;;;5.00;90.40;;;;;;5054660;28;20040;-74
2022/01/18 09:25:20;;;;;;;17.67;4.40;;;5.00;90.30;;;;;;5046050;28;20111;-74
2022/01/18 09:27:47;;;;;;;14.85;4.20;;;5.00;90.30;;;;;;5054236;28;20059;-74
2022/01/18 09:30:14;;;;;;;19.08;3.70;;;5.10;90.30;;;;;;5059219;28;20047;-74
2022/01/18 09:32:44;;;;;;;20.20;3.40;;;5.00;90.20;;;;;;5043812;28;20045;-74
2022/01/18 09:35:11;;;;;;;19.48;3.13;;;5.00;90.30;;;;;;5052145;28;20064;-74
2022/01/18 09:37:37;;;;;;;27.02;4.13;;;5.00;90.20;;;;;;5026396;28;20045;-74
2022/01/18 09:40:05;;;;;;;15.57;3.75;;;5.00;90.20;;;;;;5042963;28;20050;-74
2022/01/18 09:42:38;;;;;;;23.70;4.05;;;5.00;90.20;;;;;;5055563;28;20083;-74
2022/01/18 09:45:07;;;;;;;25.67;3.88;;;5.00;90.10;;;;;;5064590;28;20071;-74
2022/01/18 09:47:38;;;;;;;21.88;4.10;;;5.00;90.10;;;;;;5079091;28;20079;-74
2022/01/18 09:50:05;;;;;;;32.85;5.53;;;5.00;90.10;;;;;;5082157;28;20065;-74
2022/01/18 09:52:31;;;;;;;21.40;4.38;;;5.10;90.20;;;;;;5063066;28;20490;-74
2022/01/18 09:55:00;;;;;;;25.37;5.13;;;5.10;90.20;;;;;;5031943;28;20123;-74
2022/01/18 09:57:25;;;;;;;27.08;4.85;;;5.10;90.20;;;;;;5042991;28;20046;-74
2022/01/18 09:59:51;;;;;;;32.57;5.97;;;5.20;90.20;;;;;;5056411;28;20036;-74
2022/01/18 10:02:19;;;;;;;25.40;6.00;;;5.20;90.10;;;;;;5050425;28;20052;-74
2022/01/18 10:04:47;;;;;;;23.90;5.90;;;5.20;90.10;;;;;;5029357;28;20062;-74
2022/01/18 10:07:13;;;;;;;31.88;6.63;;;5.20;90.10;;;;;;5029034;28;20044;-74
2022/01/18 10:09:39;;;;;;;30.27;7.00;;;5.30;90.10;;;;;;5055014;28;20043;-74
2022/01/18 10:12:16;;;;;;;34.87;6.53;;;5.30;90.10;;;;;;5044888;28;20040;-74
2022/01/18 10:14:52;;;;;;;33.35;6.50;;;5.30;90.20;;;;;;5058832;28;20040;-74
2022/01/18 10:17:28;;;;;;;21.67;5.45;;;5.30;90.00;;;;;;5067205;28;20051;-74
2022/01/18 10:19:54;;;;;;;30.65;6.63;;;5.30;90.00;;;;;;5055638;28;20047;-74
2022/01/18 10:22:28;;;;;;;34.77;7.73;;;5.30;89.90;;;;;;5032935;28;20615;-74
2022/01/18 10:24:54;;;;;;;35.90;7.53;;;5.30;90.00;;;;;;5053625;28;20047;-74
2022/01/18 10:27:35;;;;;;;37.17;7.40;;;5.30;90.00;;;;;;5052910;28;20040;-73
2022/01/18 10:30:06;;;;;;;38.03;8.88;;;5.30;89.90;;;;;;5051686;28;20056;-74
2022/01/18 10:32:38;;;;;;;45.08;8.90;;;5.30;89.80;;;;;;5057753;28;20044;-74
2022/01/18 10:35:10;;;;;;;30.33;8.27;;;5.20;89.60;;;;;;5051293;28;20040;-74
2022/01/18 10:37:43;;;;;;;38.40;7.53;;;5.20;89.60;;;;;;5013705;28;20377;-73
2022/01/18 10:40:19;;;;;;;47.05;8.73;;;5.30;89.60;;;;;;5062258;28;20062;-74
2022/01/18 10:42:49;;;;;;;28.77;6.70;;;5.30;89.60;;;;;;5058511;28;20111;-74
2022/01/18 10:45:44;;;;;;;22.00;5.57;;;5.20;89.60;;;;;;5059964;28;20123;-74
2022/01/18 10:48:14;;;;;;;32.42;5.63;;;5.20;89.60;;;;;;5040305;28;20051;-73
2022/01/18 10:50:43;;;;;;;27.08;5.63;;;5.20;89.50;;;;;;5062409;28;20063;-74
2022/01/18 10:53:10;;;;;;;24.88;4.85;;;5.30;89.50;;;;;;5052269;28;20068;-73
2022/01/18 10:55:35;;;;;;;22.30;4.95;;;5.30;89.30;;;;;;5040540;28;20043;-74
2022/01/18 10:58:20;;;;;;;23.20;6.70;;;5.30;89.40;;;;;;5050872;28;20081;-73
2022/01/18 11:00:46;;;;;;;23.30;5.40;;;5.30;89.40;;;;;;5047577;28;20048;-74
2022/01/18 11:03:12;;;;;;;19.38;5.15;;;5.30;89.20;;;;;;5079164;28;20048;-73
2022/01/18 11:05:44;;;;;;;22.85;4.20;;;5.30;89.30;;;;;;5060293;28;20305;-74
2022/01/18 11:08:10;;;;;;;24.52;5.38;;;5.30;89.20;;;;;;5044052;28;20079;-74
2022/01/18 11:10:41;;;;;;;41.88;6.15;;;5.30;89.10;;;;;;5040351;28;20044;-74
2022/01/18 11:13:11;;;;;;;25.90;4.80;;;5.30;89.00;;;;;;5053102;28;20269;-74
2022/01/18 11:15:45;;;;;;;20.48;4.88;;;5.30;89.00;;;;;;5059943;28;20125;-74
2022/01/18 11:18:17;;;;;;;18.55;4.40;;;5.30;89.10;;;;;;5039700;28;20165;-73
2022/01/18 11:20:48;;;;;;;17.88;4.60;;;5.30;89.00;;;;;;5052349;28;20040;-74
2022/01/18 11:23:15;;;;;;;22.83;5.03;;;5.30;89.00;;;;;;5068159;28;20123;-73
2022/01/18 11:25:41;;;;;;;14.88;4.18;;;5.30;88.70;;;;;;5029317;28;20044;-74
2022/01/18 11:28:09;;;;;;;22.10;4.77;;;5.30;88.80;;;;;;5036693;28;20041;-74
2022/01/18 11:30:41;;;;;;;24.23;5.07;;;5.30;88.70;;;;;;5054041;28;20047;-74
2022/01/18 11:33:10;;;;;;;18.75;4.50;;;5.30;88.90;;;;;;5036694;28;20033;-74
2022/01/18 11:35:58;;;;;;;28.02;5.43;;;5.30;88.80;;;;;;5043482;28;20028;-74
2022/01/18 11:38:42;;;;;;;23.13;5.05;;;5.30;88.80;;;;;;5058536;28;20092;-74
2022/01/18 11:41:26;;;;;;;28.20;5.53;;;5.30;88.60;;;;;;5054703;28;20048;-74
2022/01/18 11:43:52;;;;;;;23.10;6.18;;;5.30;88.50;;;;;;5047155;28;20545;-74
2022/01/18 11:46:27;;;;;;;49.75;7.35;;;5.30;88.60;;;;;;5042263;28;20037;-74
2022/01/18 11:49:04;;;;;;;39.92;7.38;;;5.30;88.60;;;;;;5051913;28;20067;-74
2022/01/18 11:51:40;;;;;;;36.70;7.05;;;5.30;88.60;;;;;;5069148;28;20492;-74
2022/01/18 11:54:28;;;;;;;21.05;6.03;;;5.20;88.40;;;;;;5063629;28;20040;-74
2022/01/18 11:56:54;;;;;;;24.77;6.57;;;5.20;88.30;;;;;;5039637;28;20135;-74
2022/01/18 11:59:22;;;;;;;27.27;6.45;;;5.20;88.30;;;;;;5006533;28;20097;-74
2022/01/18 12:01:59;;;;;;;18.80;5.25;;;5.20;88.40;;;;;;5057464;28;20052;-73
2022/01/18 12:04:41;;;;;;;28.52;6.50;;;5.20;88.40;;;;;;5030920;28;20052;-74
2022/01/18 12:07:08;;;;;;;25.50;6.13;;;5.20;88.30;;;;;;5039129;28;20048;-74
2022/01/18 12:09:41;;;;;;;24.42;6.57;;;5.20;88.20;;;;;;5066197;28;20036;-74
2022/01/18 12:12:40;;;;;;;20.15;6.55;;;5.20;88.20;;;;;;5045972;28;20044;-74
2022/01/18 12:15:29;;;;;;;23.20;6.40;;;5.20;88.20;;;;;;5048080;28;20476;-73
2022/01/18 12:17:55;;;;;;;22.58;6.97;;;5.30;88.10;;;;;;5037343;28;20527;-73
2022/01/18 12:20:46;;;;;;;31.63;7.70;;;5.30;88.10;;;;;;5038469;28;20040;-73
2022/01/18 12:23:22;;;;;;;25.15;7.32;;;5.30;88.10;;;;;;5045636;28;20643;-73
2022/01/18 12:26:02;;;;;;;26.08;7.95;;;5.30;88.10;;;;;;5072729;28;20514;-73
2022/01/18 12:31:52;;;;;;;29.90;8.50;;;5.30;88.00;;;;;;5059558;28;20564;-73
2022/01/18 12:34:32;;;;;;;31.50;7.22;;;5.30;88.00;;;;;;5038487;28;20131;-73
2022/01/18 12:37:07;;;;;;;39.85;8.23;;;5.30;88.10;;;;;;5065973;28;20097;-73
2022/01/18 12:39:55;;;;;;;32.55;8.13;;;5.40;88.00;;;;;;5044239;28;20046;-75
2022/01/18 12:45:00;;;;;;;;;;;5.30;87.90;;;;;;5065136;28;20040;-73
2022/01/18 12:47:26;;;;;;;21.35;6.40;;;5.30;87.90;;;;;;5065073;28;19978;-73
2022/01/18 12:49:53;;;;;;;28.30;7.93;;;5.30;87.90;;;;;;5051772;28;20035;-73
2022/01/18 12:52:19;;;;;;;29.77;6.90;;;5.30;87.90;;;;;;5041097;28;20431;-73
2022/01/18 12:54:48;;;;;;;36.58;7.93;;;5.30;88.00;;;;;;5060105;28;20036;-74
2022/01/18 12:57:14;;;;;;;25.70;7.43;;;5.30;87.90;;;;;;5063430;28;20052;-74
2022/01/18 13:00:00;;;;;;;22.55;7.05;;;5.30;87.80;;;;;;5035213;28;20040;-74
2022/01/18 13:02:27;;;;;;;34.83;7.88;;;5.20;87.70;;;;;;5033013;28;20496;-74
2022/01/18 13:05:00;;;;;;;46.95;10.10;;;5.20;87.60;;;;;;5052822;28;20056;-73
2022/01/18 13:07:26;;;;;;;36.95;9.93;;;5.20;87.70;;;;;;5053170;28;20513;-73
2022/01/18 13:10:02;;;;;;;34.08;12.07;;;5.20;87.60;;;;;;5023616;28;20094;-73
2022/01/18 13:12:33;;;;;;;46.42;12.43;;;5.10;87.60;;;;;;5045746;28;20032;-73
2022/01/18 13:15:02;;;;;;;58.45;13.60;;;5.10;87.60;;;;;;5045030;28;20040;-73
2022/01/18 13:23:46;;;;;;;68.80;12.68;;;5.00;87.70;;;;;;5066307;28;20514;-73
2022/01/18 13:26:12;;;;;;;47.63;11.73;;;5.00;87.60;;;;;;5071982;28;20051;-73
2022/01/18 13:28:39;;;;;;;50.93;12.30;;;5.00;87.30;;;;;;5017708;28;20036;-73
2022/01/18 13:31:24;;;;;;;34.30;10.65;;;4.90;87.40;;;;;;5025191;28;20405;-73
2022/01/18 13:33:56;;;;;;;54.50;12.43;;;4.90;87.30;;;;;;5041841;28;20149;-73
2022/01/18 13:36:23;;;;;;;52.10;12.65;;;4.80;87.30;;;;;;5073295;28;20358;-74
2022/01/18 13:38:50;;;;;;;59.42;12.23;;;4.80;87.40;;;;;;5072602;28;20571;-74
2022/01/18 13:41:17;;;;;;;63.13;12.05;;;4.80;87.50;;;;;;5060397;28;20137;-74
2022/01/18 13:43:43;;;;;;;61.45;11.35;;;4.80;87.60;;;;;;5044788;28;20068;-74
2022/01/18 13:46:09;;;;;;;52.27;9.43;;;4.80;87.50;;;;;;5052573;28;20477;-73
2022/01/18 13:48:35;;;;;;;59.63;10.43;;;4.70;87.50;;;;;;5034560;28;20497;-73
2022/01/18 13:51:11;;;;;;;44.28;9.50;;;4.70;87.50;;;;;;5064533;28;20044;-73
2022/01/18 13:53:36;;;;;;;;;;;4.70;87.50;;;;;;5050648;28;20055;-74
2022/01/18 13:56:11;;;;;;;37.27;8.90;;;4.60;87.50;;;;;;5067508;28;19916;-74
2022/01/18 13:58:43;;;;;;;38.97;9.43;;;4.50;87.30;;;;;;5047936;28;20075;-73
2022/01/18 14:01:26;;;;;;;55.30;10.88;;;4.50;87.20;;;;;;5075684;28;20059;-73
2022/01/18 14:04:01;;;;;;;45.65;9.90;;;4.40;87.20;;;;;;5065679;28;20497;-73
2022/01/18 14:06:38;;;;;;;60.28;11.65;;;4.30;87.20;;;;;;5039947;28;20041;-73
2022/01/18 14:09:05;;;;;;;57.88;11.40;;;4.30;87.40;;;;;;5046205;28;20039;-73
2022/01/18 14:11:35;;;;;;;44.78;10.45;;;4.30;87.40;;;;;;5052577;28;20045;-73
2022/01/18 14:14:13;;;;;;;36.15;9.18;;;4.30;87.60;;;;;;5055785;28;20052;-73
2022/01/18 14:16:55;;;;;;;43.63;8.73;;;4.20;87.30;;;;;;5056312;28;20068;-73
2022/01/18 14:19:34;;;;;;;46.20;9.80;;;4.10;87.40;;;;;;5050773;28;20050;-73
2022/01/18 14:22:16;;;;;;;52.65;10.15;;;4.10;87.30;;;;;;5067080;28;20033;-73
2022/01/18 14:24:48;;;;;;;48.10;10.27;;;4.00;87.40;;;;;;5052244;28;20033;-73
2022/01/18 14:27:25;;;;;;;57.50;10.95;;;4.00;87.50;;;;;;5039990;28;20087;-73
2022/01/18 14:29:59;;;;;;;33.72;8.27;;;4.00;87.60;;;;;;5038962;28;20050;-73
2022/01/18 14:32:36;;;;;;;47.55;9.40;;;3.90;87.70;;;;;;5059243;28;20100;-73
2022/01/18 14:35:22;;;;;;;48.17;10.02;;;3.90;87.60;;;;;;5058263;28;20028;-73
2022/01/18 14:37:52;;;;;;;51.63;9.95;;;3.80;87.60;;;;;;5059561;28;20131;-73
2022/01/18 14:40:24;;;;;;;64.05;10.55;;;3.80;87.60;;;;;;5040117;28;20850;-73
2022/01/18 14:42:58;;;;;;;43.58;9.05;;;3.80;87.60;;;;;;5070307;28;20040;-73
2022/01/18 14:45:33;;;;;;;33.78;9.20;;;3.70;87.60;;;;;;5048615;28;20048;-73
2022/01/18 14:48:05;;;;;;;45.58;9.35;;;3.60;87.50;;;;;;5059923;28;20047;-73